Time;durP1;ratioP1;P1;durP2;ratioP2;P2;SDS_P1;SDS_P2;PMS_P1;PMS_P2;Temp;Humidity;BMP_temperature;BMP_pressure;BME280_temperature;BME280_humidity;BME280_pressure;Samples;Min_cycle;Max_cycle;Signal;HPM_P1;HPM_P2
2022/04/15 00:01:08;;;;;;;0.80;0.70;;;11.60;99.90;;;;;;5051752;28;20163;-72
2022/04/15 00:03:34;;;;;;;1.63;0.87;;;11.60;99.90;;;;;;5051575;28;20190;-72
2022/04/15 00:06:00;;;;;;;0.80;0.77;;;11.60;99.90;;;;;;5051389;28;20548;-72
2022/04/15 00:08:26;;;;;;;1.40;1.30;;;11.60;99.90;;;;;;5051578;28;20412;-72
2022/04/15 00:10:52;;;;;;;5.27;1.50;;;11.60;99.90;;;;;;5051567;28;20487;-72
2022/04/15 00:13:24;;;;;;;1.27;0.80;;;11.50;99.90;;;;;;5051521;28;20774;-72
2022/04/15 00:15:50;;;;;;;1.43;0.80;;;11.50;99.90;;;;;;5051303;28;20193;-73
2022/04/15 00:18:16;;;;;;;0.80;0.60;;;11.50;99.90;;;;;;5051395;28;20471;-74
2022/04/15 00:20:41;;;;;;;1.20;1.10;;;11.40;99.90;;;;;;5051515;28;20409;-72
2022/04/15 00:23:07;;;;;;;6.20;1.63;;;11.40;99.90;;;;;;5051386;28;20202;-72
2022/04/15 00:25:32;;;;;;;1.13;1.00;;;11.30;99.90;;;;;;5051017;28;20167;-72
2022/04/15 00:27:58;;;;;;;1.40;1.10;;;11.30;99.90;;;;;;5051287;28;20163;-72
2022/04/15 00:30:23;;;;;;;1.43;1.27;;;11.30;99.90;;;;;;5051434;28;20173;-72
2022/04/15 00:32:49;;;;;;;1.20;0.70;;;11.20;99.90;;;;;;5051228;28;20167;-72
2022/04/15 00:35:14;;;;;;;2.27;1.40;;;11.20;99.90;;;;;;5051396;28;20175;-72
2022/04/15 00:37:40;;;;;;;0.80;0.70;;;11.10;99.90;;;;;;5051072;28;20564;-72
2022/04/15 00:40:08;;;;;;;3.80;0.80;;;11.10;99.90;;;;;;5051451;28;20222;-72
2022/04/15 00:42:34;;;;;;;1.30;0.60;;;11.10;99.90;;;;;;5055034;28;20628;-72
2022/04/15 00:45:00;;;;;;;3.70;1.47;;;11.00;99.90;;;;;;5054881;28;20493;-72
2022/04/15 00:47:52;;;;;;;3.10;0.77;;;11.00;99.90;;;;;;5054536;28;20272;-71
2022/04/15 00:50:39;;;;;;;1.00;0.90;;;10.90;99.90;;;;;;5053549;28;20929;-71
2022/04/15 00:53:10;;;;;;;1.17;0.77;;;10.90;99.90;;;;;;5055109;28;21020;-72
2022/04/15 00:55:37;;;;;;;0.97;0.70;;;10.90;99.90;;;;;;5054186;28;20433;-72
2022/04/15 00:58:04;;;;;;;0.80;0.63;;;10.80;99.90;;;;;;5054708;28;20404;-72
2022/04/15 01:00:35;;;;;;;2.23;2.03;;;10.80;99.90;;;;;;5054539;28;20483;-72
2022/04/15 01:03:04;;;;;;;1.37;1.27;;;10.80;99.90;;;;;;5054703;28;20409;-71
2022/04/15 01:05:29;;;;;;;1.37;1.27;;;10.70;99.90;;;;;;5054409;28;20401;-72
2022/04/15 01:07:57;;;;;;;0.93;0.70;;;10.70;99.90;;;;;;5054307;28;20813;-72
2022/04/15 01:10:25;;;;;;;5.90;1.63;;;10.70;99.90;;;;;;5054393;28;20175;-72
2022/04/15 01:12:58;;;;;;;0.80;0.60;;;10.60;99.90;;;;;;5054452;28;20410;-72
2022/04/15 01:15:26;;;;;;;1.03;0.93;;;10.60;99.90;;;;;;5054411;28;20921;-72
2022/04/15 01:17:52;;;;;;;0.80;0.50;;;10.60;99.90;;;;;;5054176;28;20409;-72
2022/04/15 01:20:18;;;;;;;0.80;0.70;;;10.60;99.90;;;;;;5054211;28;20460;-71
2022/04/15 01:22:58;;;;;;;1.63;1.10;;;10.60;99.90;;;;;;5054164;28;20413;-72
2022/04/15 01:25:23;;;;;;;2.33;0.77;;;10.50;99.90;;;;;;5052907;28;20516;-72
2022/04/15 01:27:49;;;;;;;2.63;1.27;;;10.50;99.90;;;;;;5052552;28;20512;-72
2022/04/15 01:30:19;;;;;;;1.43;1.33;;;10.50;99.90;;;;;;5054133;28;20167;-72
2022/04/15 01:32:46;;;;;;;1.00;0.80;;;10.50;99.90;;;;;;5054162;28;20628;-72
2022/04/15 01:35:14;;;;;;;1.10;1.00;;;10.50;99.90;;;;;;5053980;28;20471;-71
2022/04/15 01:37:40;;;;;;;0.97;0.93;;;10.50;99.90;;;;;;5052412;28;21025;-72
2022/04/15 01:40:08;;;;;;;1.97;1.87;;;10.40;99.90;;;;;;5053804;28;20818;-72
2022/04/15 01:42:35;;;;;;;1.10;0.70;;;10.40;99.90;;;;;;5053853;28;20600;-71
2022/04/15 01:45:01;;;;;;;1.27;1.17;;;10.40;99.90;;;;;;5052469;28;20417;-71
2022/04/15 01:47:27;;;;;;;1.93;1.33;;;10.40;99.90;;;;;;5053554;28;20433;-72
2022/04/15 01:49:53;;;;;;;1.20;0.80;;;10.40;99.90;;;;;;5053675;28;20175;-72
2022/04/15 01:52:18;;;;;;;0.80;0.60;;;10.40;99.90;;;;;;5052853;28;20547;-72
2022/04/15 01:54:45;;;;;;;1.33;1.23;;;10.40;99.90;;;;;;5053529;28;20253;-72
2022/04/15 01:57:11;;;;;;;1.13;1.03;;;10.30;99.90;;;;;;5053350;28;20198;-72
2022/04/15 01:59:37;;;;;;;2.27;0.70;;;10.30;99.90;;;;;;5052245;28;20508;-72
2022/04/15 02:02:04;;;;;;;1.27;1.10;;;10.30;99.90;;;;;;5052246;28;20444;-72
2022/04/15 02:04:30;;;;;;;1.53;1.43;;;10.30;99.90;;;;;;5053425;28;20409;-73
2022/04/15 02:06:55;;;;;;;3.00;1.33;;;10.30;99.90;;;;;;5053012;28;20425;-74
2022/04/15 02:09:21;;;;;;;0.90;0.70;;;10.30;99.90;;;;;;5052117;28;20428;-74
2022/04/15 02:11:47;;;;;;;1.43;1.33;;;10.30;99.90;;;;;;5053311;28;20171;-73
2022/04/15 02:14:13;;;;;;;2.67;1.00;;;10.30;99.90;;;;;;5053317;28;20174;-74
2022/04/15 02:16:39;;;;;;;5.03;2.57;;;10.30;99.90;;;;;;5052918;28;20195;-71
2022/04/15 02:19:05;;;;;;;0.90;0.63;;;10.30;99.90;;;;;;5051752;28;20496;-72
2022/04/15 02:21:31;;;;;;;0.90;0.80;;;10.30;99.90;;;;;;5052887;28;20484;-72
2022/04/15 02:23:56;;;;;;;1.63;1.53;;;10.30;99.90;;;;;;5051642;28;20508;-72
2022/04/15 02:26:22;;;;;;;1.47;0.70;;;10.30;99.90;;;;;;5052684;28;20273;-71
2022/04/15 02:28:47;;;;;;;1.73;0.87;;;10.20;99.90;;;;;;5053076;28;20185;-72
2022/04/15 02:31:13;;;;;;;0.97;0.93;;;10.20;99.90;;;;;;5052824;28;20171;-72
2022/04/15 02:33:38;;;;;;;0.87;0.70;;;10.20;99.90;;;;;;5052933;28;20175;-72
2022/04/15 02:36:04;;;;;;;2.13;2.00;;;10.20;99.90;;;;;;5052535;28;20201;-72
2022/04/15 02:38:30;;;;;;;2.60;0.83;;;10.10;99.90;;;;;;5051502;28;20175;-72
2022/04/15 02:40:56;;;;;;;1.13;1.00;;;10.10;99.90;;;;;;5052796;28;20628;-71
2022/04/15 02:43:25;;;;;;;0.80;0.70;;;10.10;99.90;;;;;;5052682;28;20197;-73
2022/04/15 02:45:50;;;;;;;1.80;1.70;;;10.00;99.90;;;;;;5052252;28;20429;-71
2022/04/15 02:48:16;;;;;;;1.80;1.70;;;10.00;99.90;;;;;;5052583;28;20878;-72
2022/04/15 02:50:42;;;;;;;1.83;1.73;;;10.00;99.90;;;;;;5052796;28;20174;-72
2022/04/15 02:53:07;;;;;;;3.73;1.30;;;9.90;99.90;;;;;;5052435;28;20171;-71
2022/04/15 02:55:33;;;;;;;1.70;1.60;;;10.00;99.90;;;;;;5052314;28;20186;-73
2022/04/15 02:57:58;;;;;;;1.40;1.23;;;9.90;99.90;;;;;;5052183;28;20194;-73
2022/04/15 03:00:24;;;;;;;1.67;1.00;;;9.90;99.90;;;;;;5051198;28;20751;-73
2022/04/15 03:02:50;;;;;;;1.63;1.10;;;9.90;99.90;;;;;;5052160;28;20163;-74
2022/04/15 03:05:15;;;;;;;0.90;0.80;;;9.80;99.90;;;;;;5052306;28;20813;-74
2022/04/15 03:07:41;;;;;;;1.60;1.50;;;9.80;99.90;;;;;;5052054;28;20183;-71
2022/04/15 03:10:07;;;;;;;0.80;0.60;;;9.80;99.90;;;;;;5052348;28;20752;-72
2022/04/15 03:12:37;;;;;;;3.20;1.33;;;9.80;99.90;;;;;;5050950;28;20167;-72
2022/04/15 03:15:04;;;;;;;1.00;0.87;;;9.80;99.90;;;;;;5052124;28;20401;-72
2022/04/15 03:17:31;;;;;;;0.87;0.80;;;9.70;99.90;;;;;;5051856;28;20433;-72
2022/04/15 03:19:56;;;;;;;1.17;1.07;;;9.70;99.90;;;;;;5052147;28;20984;-72
2022/04/15 03:22:22;;;;;;;1.07;0.97;;;9.70;99.90;;;;;;5052062;28;20397;-72
2022/04/15 03:24:50;;;;;;;0.80;0.70;;;9.70;99.90;;;;;;5052036;28;20174;-72
2022/04/15 03:27:16;;;;;;;0.80;0.63;;;9.70;99.90;;;;;;5051717;28;20191;-72
2022/04/15 03:29:43;;;;;;;1.60;1.50;;;9.70;99.90;;;;;;5051814;28;20401;-72
2022/04/15 03:32:09;;;;;;;2.27;1.30;;;9.70;99.90;;;;;;5052081;28;20174;-72
2022/04/15 03:34:34;;;;;;;2.03;1.87;;;9.70;99.90;;;;;;5051970;28;20401;-72
2022/04/15 03:37:00;;;;;;;2.03;1.47;;;9.60;99.90;;;;;;5051549;28;20193;-72
2022/04/15 03:39:25;;;;;;;1.43;1.30;;;9.60;99.90;;;;;;5051796;28;20198;-72
2022/04/15 03:41:51;;;;;;;1.37;1.27;;;9.60;99.90;;;;;;5051736;28;20163;-72
2022/04/15 03:44:17;;;;;;;1.73;1.10;;;9.60;99.90;;;;;;5051675;28;20163;-72
2022/04/15 03:46:42;;;;;;;1.80;1.70;;;9.60;99.90;;;;;;5051583;28;20644;-72
2022/04/15 03:49:08;;;;;;;1.50;1.40;;;9.60;99.90;;;;;;5051719;28;20221;-72
2022/04/15 03:51:34;;;;;;;0.77;0.57;;;9.50;99.90;;;;;;5051696;28;20167;-72
2022/04/15 03:53:59;;;;;;;0.80;0.70;;;9.50;99.90;;;;;;5051776;28;20170;-72
2022/04/15 03:56:25;;;;;;;0.90;0.67;;;9.50;99.90;;;;;;5051184;28;20448;-72
2022/04/15 03:58:50;;;;;;;2.27;2.17;;;9.50;99.90;;;;;;5051685;28;20194;-72
2022/04/15 04:01:16;;;;;;;0.70;0.50;;;9.50;99.90;;;;;;5051653;28;20166;-72
2022/04/15 04:03:41;;;;;;;5.17;3.53;;;9.50;99.90;;;;;;5051684;28;20309;-72
2022/04/15 04:06:07;;;;;;;0.80;0.73;;;9.50;99.90;;;;;;5051261;28;20596;-72
2022/04/15 04:08:32;;;;;;;3.30;1.90;;;9.40;99.90;;;;;;5051648;28;20163;-72
2022/04/15 04:10:58;;;;;;;1.47;1.33;;;9.40;99.90;;;;;;5051579;28;20172;-72
2022/04/15 04:13:24;;;;;;;1.93;1.83;;;9.40;99.90;;;;;;5051579;28;20171;-72
2022/04/15 04:15:49;;;;;;;1.73;1.00;;;9.40;99.90;;;;;;5052915;28;20199;-72
2022/04/15 04:18:17;;;;;;;1.43;1.33;;;9.40;99.90;;;;;;5055317;28;20170;-72
2022/04/15 04:20:43;;;;;;;1.63;1.53;;;9.30;99.90;;;;;;5053784;28;20629;-72
2022/04/15 04:23:09;;;;;;;6.10;0.80;;;9.30;99.90;;;;;;5055370;28;20442;-72
2022/04/15 04:25:34;;;;;;;2.73;2.47;;;9.30;99.90;;;;;;5055317;28;20568;-72
2022/04/15 04:28:00;;;;;;;3.43;1.37;;;9.40;99.90;;;;;;5055006;28;20167;-73
2022/04/15 04:30:25;;;;;;;1.30;0.80;;;9.30;99.90;;;;;;5055269;28;20224;-72
2022/04/15 04:32:52;;;;;;;1.30;1.20;;;9.40;99.90;;;;;;5055270;28;20169;-72
2022/04/15 04:35:19;;;;;;;1.10;1.00;;;9.30;99.90;;;;;;5055104;28;20165;-72
2022/04/15 04:37:45;;;;;;;6.20;1.67;;;9.40;99.90;;;;;;5054948;28;20501;-72
2022/04/15 04:40:12;;;;;;;1.60;1.50;;;9.30;99.90;;;;;;5055077;28;20517;-72
2022/04/15 04:42:38;;;;;;;1.73;1.63;;;9.30;99.90;;;;;;5055037;28;20926;-72
2022/04/15 04:45:04;;;;;;;0.77;0.70;;;9.40;99.90;;;;;;5054952;28;20405;-72
2022/04/15 04:47:30;;;;;;;0.80;0.80;;;9.40;99.90;;;;;;5054642;28;20429;-72
2022/04/15 04:49:56;;;;;;;1.60;1.27;;;9.40;99.90;;;;;;5054978;28;20497;-72
2022/04/15 04:52:23;;;;;;;1.40;1.30;;;9.40;99.90;;;;;;5054701;28;20225;-72
2022/04/15 04:54:49;;;;;;;1.10;1.00;;;9.40;99.90;;;;;;5054740;28;20195;-72
2022/04/15 04:57:14;;;;;;;2.10;1.20;;;9.40;99.90;;;;;;5054374;28;20435;-72
2022/04/15 04:59:40;;;;;;;3.97;2.13;;;9.50;99.90;;;;;;5053443;28;20449;-72
2022/04/15 05:02:06;;;;;;;1.00;0.90;;;9.50;99.90;;;;;;5054646;28;20174;-72
2022/04/15 05:04:31;;;;;;;2.70;2.30;;;9.50;99.90;;;;;;5054602;28;20632;-72
2022/04/15 05:06:57;;;;;;;2.70;2.50;;;9.60;99.90;;;;;;5054236;28;20186;-72
2022/04/15 05:09:22;;;;;;;4.07;1.97;;;9.60;99.90;;;;;;5054463;28;20656;-72
2022/04/15 05:11:49;;;;;;;1.23;1.00;;;9.70;99.90;;;;;;5054540;28;20205;-72
2022/04/15 05:14:17;;;;;;;1.10;0.90;;;9.80;99.90;;;;;;5054294;28;20565;-72
2022/04/15 05:16:42;;;;;;;3.30;2.50;;;10.00;99.90;;;;;;5054002;28;20425;-72
2022/04/15 05:19:08;;;;;;;2.17;1.97;;;10.10;99.90;;;;;;5054224;28;20448;-73
2022/04/15 05:21:34;;;;;;;1.23;1.13;;;10.30;99.90;;;;;;5054250;28;20190;-73
2022/04/15 05:24:01;;;;;;;1.93;1.83;;;10.50;99.90;;;;;;5054248;28;20296;-73
2022/04/15 05:26:29;;;;;;;2.70;2.50;;;10.60;99.90;;;;;;5053664;28;20914;-73
2022/04/15 05:28:54;;;;;;;9.53;2.40;;;10.70;99.90;;;;;;5054117;28;20439;-72
2022/04/15 05:31:20;;;;;;;5.77;2.40;;;10.90;99.90;;;;;;5054064;28;20409;-72
2022/04/15 05:33:45;;;;;;;1.97;1.80;;;11.00;99.90;;;;;;5053808;28;20171;-72
2022/04/15 05:36:11;;;;;;;5.77;1.73;;;11.30;99.90;;;;;;5052390;28;20560;-71
2022/04/15 05:38:36;;;;;;;1.33;1.10;;;11.70;99.90;;;;;;5053839;28;20233;-72
2022/04/15 05:41:02;;;;;;;3.13;1.93;;;12.20;99.90;;;;;;5053893;28;20225;-72
2022/04/15 05:43:28;;;;;;;4.17;2.90;;;12.60;99.90;;;;;;5053690;28;20177;-72
2022/04/15 05:45:53;;;;;;;2.83;2.63;;;13.10;99.90;;;;;;5053838;28;20417;-73
2022/04/15 05:48:19;;;;;;;8.80;3.60;;;13.50;99.90;;;;;;5053486;28;20167;-73
2022/04/15 05:50:44;;;;;;;2.60;2.40;;;13.90;99.90;;;;;;5053845;28;20678;-72
2022/04/15 05:53:12;;;;;;;4.90;1.50;;;14.40;99.90;;;;;;5053758;28;20537;-73
2022/04/15 05:55:38;;;;;;;4.70;2.90;;;14.80;99.90;;;;;;5053436;28;20610;-73
2022/04/15 05:58:03;;;;;;;6.10;2.80;;;15.30;99.90;;;;;;5053397;28;20441;-72
2022/04/15 06:00:29;;;;;;;6.43;2.30;;;15.70;99.90;;;;;;5053479;28;20266;-73
2022/04/15 06:02:54;;;;;;;4.53;2.90;;;16.00;99.90;;;;;;5053582;28;20170;-73
2022/04/15 06:05:20;;;;;;;4.30;3.73;;;16.40;99.90;;;;;;5053497;28;20171;-72
2022/04/15 06:07:46;;;;;;;7.53;4.27;;;16.70;99.90;;;;;;5051877;28;20285;-73
2022/04/15 06:10:11;;;;;;;13.63;3.00;;;17.10;99.90;;;;;;5053457;28;20751;-74
2022/04/15 06:15:30;;;;;;;3.30;3.00;;;17.70;99.90;;;;;;5053584;28;20198;-73
2022/04/15 06:18:00;;;;;;;2.87;2.13;;;18.10;99.90;;;;;;5053027;28;20501;-73
2022/04/15 06:20:29;;;;;;;2.60;2.40;;;18.40;99.90;;;;;;5053146;28;20453;-73
2022/04/15 06:22:56;;;;;;;5.27;3.53;;;18.80;99.90;;;;;;5053183;28;20398;-73
2022/04/15 06:25:22;;;;;;;2.93;2.30;;;19.10;99.90;;;;;;5053060;28;20406;-73
2022/04/15 06:27:49;;;;;;;6.33;2.47;;;19.30;99.90;;;;;;5052732;28;20937;-73
2022/04/15 06:30:15;;;;;;;5.90;3.43;;;19.70;99.90;;;;;;5053009;28;20770;-73
2022/04/15 06:32:41;;;;;;;1.60;1.50;;;20.30;99.90;;;;;;5052993;28;20405;-73
2022/04/15 06:35:07;;;;;;;5.37;3.27;;;20.70;99.90;;;;;;5052815;28;20639;-74
2022/04/15 06:37:32;;;;;;;3.10;2.20;;;20.90;99.90;;;;;;5052420;28;20187;-73
2022/04/15 06:39:58;;;;;;;1.90;1.27;;;21.00;99.90;;;;;;5052366;28;20459;-73
2022/04/15 06:42:25;;;;;;;3.20;1.93;;;21.30;99.90;;;;;;5052734;28;20640;-73
2022/04/15 06:44:52;;;;;;;3.00;1.70;;;21.50;99.90;;;;;;5052729;28;20513;-73
2022/04/15 06:47:18;;;;;;;4.77;2.90;;;21.80;99.90;;;;;;5052322;28;20793;-74
2022/04/15 06:49:45;;;;;;;4.43;3.07;;;22.20;99.90;;;;;;5052657;28;20811;-74
2022/04/15 06:52:14;;;;;;;5.43;2.10;;;22.30;99.90;;;;;;5052620;28;20878;-74
2022/04/15 06:54:39;;;;;;;3.87;2.77;;;22.20;99.90;;;;;;5052389;28;20405;-74
2022/04/15 06:57:06;;;;;;;4.70;2.80;;;22.10;99.90;;;;;;5052210;28;20487;-73
2022/04/15 06:59:32;;;;;;;6.30;3.10;;;21.90;99.90;;;;;;5052492;28;20186;-73
2022/04/15 07:01:59;;;;;;;2.40;2.20;;;21.90;99.90;;;;;;5052349;28;20393;-73
2022/04/15 07:04:25;;;;;;;5.33;3.33;;;21.90;99.90;;;;;;5052386;28;20741;-73
2022/04/15 07:06:51;;;;;;;2.33;1.70;;;22.10;99.90;;;;;;5050715;28;20437;-74
2022/04/15 07:09:16;;;;;;;4.30;2.70;;;22.50;99.90;;;;;;5052391;28;20543;-74
2022/04/15 07:11:42;;;;;;;2.87;2.47;;;22.80;99.90;;;;;;5052278;28;20177;-74
2022/04/15 07:14:07;;;;;;;3.23;2.10;;;23.40;99.90;;;;;;5052272;28;20636;-73
2022/04/15 07:16:34;;;;;;;2.47;2.27;;;23.90;98.80;;;;;;5050522;28;20191;-73
2022/04/15 07:19:04;;;;;;;3.67;2.63;;;24.10;96.10;;;;;;5052097;28;20201;-73
2022/04/15 07:21:36;;;;;;;4.53;2.70;;;24.30;95.00;;;;;;5052096;28;20398;-74
2022/04/15 07:24:03;;;;;;;3.90;3.60;;;24.50;94.20;;;;;;5052119;28;20401;-75
2022/04/15 07:26:29;;;;;;;5.07;3.50;;;24.60;92.30;;;;;;5051628;28;20418;-74
2022/04/15 07:28:55;;;;;;;4.40;3.40;;;24.10;91.00;;;;;;5052085;28;20405;-73
2022/04/15 07:31:21;;;;;;;5.50;2.30;;;23.70;90.20;;;;;;5051909;28;20423;-73
2022/04/15 07:33:47;;;;;;;5.30;3.93;;;23.10;91.00;;;;;;5051996;28;20524;-73
2022/04/15 07:38:57;;;;;;;5.53;3.37;;;22.00;92.40;;;;;;5051904;28;20202;-73
2022/04/15 07:41:22;;;;;;;5.03;4.27;;;21.40;93.70;;;;;;5051884;28;20398;-73
2022/04/15 07:43:48;;;;;;;5.97;4.67;;;20.80;95.50;;;;;;5050581;28;20166;-73
2022/04/15 07:46:14;;;;;;;9.20;6.40;;;20.30;97.70;;;;;;5051582;28;20733;-73
2022/04/15 07:48:40;;;;;;;5.73;5.00;;;19.70;99.90;;;;;;5051680;28;20163;-73
2022/04/15 07:51:05;;;;;;;8.03;4.70;;;19.30;99.90;;;;;;5053928;28;20401;-74
2022/04/15 07:53:31;;;;;;;12.67;5.07;;;18.90;99.90;;;;;;5055902;28;20201;-73
2022/04/15 07:55:56;;;;;;;10.83;5.80;;;18.50;99.90;;;;;;5055214;28;20230;-73
2022/04/15 07:58:22;;;;;;;10.27;4.00;;;18.10;99.90;;;;;;5055391;28;20190;-73
2022/04/15 08:00:47;;;;;;;10.00;6.30;;;17.70;99.90;;;;;;5054032;28;20198;-73
2022/04/15 08:03:13;;;;;;;9.93;4.57;;;17.40;99.90;;;;;;5055833;28;20194;-73
2022/04/15 08:05:38;;;;;;;10.47;4.87;;;17.20;99.90;;;;;;5055695;28;20221;-73
2022/04/15 08:08:04;;;;;;;14.53;5.80;;;17.10;99.90;;;;;;5055504;28;20166;-73
2022/04/15 08:10:30;;;;;;;18.23;6.13;;;16.90;99.90;;;;;;5055756;28;20170;-72
2022/04/15 08:12:55;;;;;;;23.73;5.60;;;16.70;99.90;;;;;;5055656;28;20663;-73
2022/04/15 08:15:21;;;;;;;8.97;5.33;;;16.50;99.90;;;;;;5054188;28;20663;-73
2022/04/15 08:17:47;;;;;;;6.77;4.33;;;16.30;99.90;;;;;;5054719;28;20195;-73
2022/04/15 08:20:14;;;;;;;10.60;5.67;;;16.10;99.90;;;;;;5055454;28;20860;-73
2022/04/15 08:22:40;;;;;;;24.33;6.83;;;16.00;99.90;;;;;;5055441;28;20170;-73
2022/04/15 08:25:06;;;;;;;13.23;6.23;;;15.90;99.90;;;;;;5055368;28;20401;-73
2022/04/15 08:27:32;;;;;;;6.40;5.80;;;15.70;99.90;;;;;;5055002;28;20825;-73
2022/04/15 08:29:57;;;;;;;10.40;5.60;;;15.60;99.90;;;;;;5055011;28;20454;-72
2022/04/15 08:32:23;;;;;;;12.03;6.60;;;15.50;99.90;;;;;;5055288;28;20171;-72
2022/04/15 08:34:49;;;;;;;12.23;6.20;;;15.30;99.90;;;;;;5055235;28;20174;-72
2022/04/15 08:37:14;;;;;;;3.70;3.40;;;15.20;99.90;;;;;;5054827;28;20198;-72
2022/04/15 08:39:40;;;;;;;10.73;4.63;;;15.10;99.90;;;;;;5055060;28;20190;-73
2022/04/15 08:42:09;;;;;;;12.47;5.10;;;15.00;99.90;;;;;;5055134;28;20190;-72
2022/04/15 08:44:35;;;;;;;9.67;6.27;;;14.90;99.90;;;;;;5054928;28;20300;-73
2022/04/15 08:47:02;;;;;;;6.63;3.97;;;14.80;99.90;;;;;;5054750;28;20470;-73
2022/04/15 08:49:29;;;;;;;9.57;4.50;;;14.70;99.90;;;;;;5054947;28;20431;-72
2022/04/15 08:51:55;;;;;;;4.17;3.73;;;14.60;99.90;;;;;;5054902;28;20417;-72
2022/04/15 08:54:21;;;;;;;10.53;5.53;;;14.50;99.90;;;;;;5054849;28;20405;-73
2022/04/15 08:56:47;;;;;;;23.50;7.40;;;14.40;99.90;;;;;;5054414;28;20213;-73
2022/04/15 08:59:14;;;;;;;4.87;3.90;;;14.40;99.90;;;;;;5054610;28;20456;-73
2022/04/15 09:01:40;;;;;;;15.27;5.70;;;14.30;99.90;;;;;;5054286;28;20488;-73
2022/04/15 09:04:06;;;;;;;12.33;4.53;;;14.30;99.90;;;;;;5054609;28;20408;-73
2022/04/15 09:06:32;;;;;;;5.30;3.00;;;14.30;99.90;;;;;;5054325;28;20758;-73
2022/04/15 09:09:11;;;;;;;7.93;3.73;;;14.30;99.90;;;;;;5054576;28;20432;-73
2022/04/15 09:11:38;;;;;;;11.40;5.77;;;14.40;99.90;;;;;;5054459;28;20236;-73
2022/04/15 09:14:10;;;;;;;9.17;3.30;;;14.60;99.90;;;;;;5054498;28;20903;-73
2022/04/15 09:16:45;;;;;;;8.20;5.20;;;14.80;99.90;;;;;;5052873;28;20465;-74
2022/04/15 09:19:11;;;;;;;3.87;2.20;;;15.10;99.90;;;;;;5054313;28;20548;-73
2022/04/15 09:21:39;;;;;;;12.53;3.27;;;15.50;99.90;;;;;;5054310;28;20406;-73
2022/04/15 09:24:07;;;;;;;3.70;3.10;;;16.00;99.90;;;;;;5054742;28;20404;-73
2022/04/15 09:26:33;;;;;;;14.33;4.70;;;16.40;99.90;;;;;;5052752;28;20525;-74
2022/04/15 09:28:59;;;;;;;10.07;3.73;;;16.50;99.90;;;;;;5053194;28;20417;-74
2022/04/15 09:31:25;;;;;;;6.37;3.50;;;16.60;99.90;;;;;;5054224;28;20413;-73
2022/04/15 09:33:58;;;;;;;8.03;3.53;;;16.50;99.90;;;;;;5054159;28;20194;-73
2022/04/15 09:36:26;;;;;;;2.70;1.83;;;16.60;99.90;;;;;;5053969;28;20429;-73
2022/04/15 09:39:04;;;;;;;4.67;2.60;;;17.10;99.90;;;;;;5053920;28;20409;-73
2022/04/15 09:41:30;;;;;;;7.03;3.80;;;18.40;99.90;;;;;;5052758;28;20432;-73
2022/04/15 09:43:58;;;;;;;3.53;2.40;;;21.30;99.90;;;;;;5052380;28;20417;-73
2022/04/15 09:46:27;;;;;;;5.13;3.60;;;24.40;99.90;;;;;;5052383;28;20807;-74
2022/04/15 09:49:05;;;;;;;3.53;2.13;;;25.40;90.90;;;;;;5052573;28;20475;-74
2022/04/15 09:51:34;;;;;;;8.43;4.23;;;25.30;80.90;;;;;;5052612;28;20914;-73
2022/04/15 09:54:03;;;;;;;5.83;3.57;;;25.10;76.30;;;;;;5052421;28;20436;-74
2022/04/15 09:56:33;;;;;;;4.97;3.83;;;25.60;73.10;;;;;;5053397;28;20456;-73
2022/04/15 09:59:04;;;;;;;5.70;3.47;;;26.20;68.60;;;;;;5052167;28;20467;-73
2022/04/15 10:01:32;;;;;;;6.13;3.43;;;26.90;66.60;;;;;;5052293;28;20463;-74
2022/04/15 10:03:59;;;;;;;4.33;3.30;;;28.90;63.70;;;;;;5052390;28;20429;-74
2022/04/15 10:06:26;;;;;;;3.80;3.37;;;31.10;58.10;;;;;;5052127;28;20436;-75
2022/04/15 10:08:53;;;;;;;4.60;4.03;;;31.80;53.20;;;;;;5052237;28;20751;-75
2022/04/15 10:11:19;;;;;;;7.73;3.90;;;32.00;51.00;;;;;;5052113;28;20785;-75
2022/04/15 10:13:46;;;;;;;5.77;3.60;;;33.50;50.10;;;;;;5051076;28;20472;-73
2022/04/15 10:16:13;;;;;;;5.90;4.10;;;35.40;47.20;;;;;;5051792;28;20491;-76
2022/04/15 10:18:40;;;;;;;7.47;5.10;;;35.50;44.40;;;;;;5051637;28;20501;-73
2022/04/15 10:21:08;;;;;;;4.20;3.50;;;35.40;43.60;;;;;;5052221;28;20879;-76
2022/04/15 10:23:35;;;;;;;4.60;4.20;;;37.10;42.80;;;;;;5051891;28;20422;-74
2022/04/15 10:26:03;;;;;;;4.40;4.00;;;36.90;40.40;;;;;;5051629;28;20430;-74
2022/04/15 10:28:47;;;;;;;5.73;4.57;;;37.10;40.20;;;;;;5051591;28;20470;-74
2022/04/15 10:31:17;;;;;;;5.57;4.50;;;38.40;39.30;;;;;;5051784;28;20776;-75
2022/04/15 10:33:49;;;;;;;3.80;3.20;;;39.90;38.30;;;;;;5051641;28;20401;-75
2022/04/15 10:36:23;;;;;;;5.27;4.07;;;40.90;36.60;;;;;;5051535;28;20437;-75
2022/04/15 10:39:06;;;;;;;4.17;3.50;;;40.30;35.20;;;;;;5052401;28;20406;-73
2022/04/15 10:41:55;;;;;;;3.87;3.57;;;39.00;35.40;;;;;;5052738;28;20460;-74
2022/04/15 10:44:26;;;;;;;4.50;3.80;;;39.70;35.60;;;;;;5052800;28;20406;-73
2022/04/15 10:46:52;;;;;;;4.00;3.60;;;40.50;34.80;;;;;;5051128;28;20426;-74
2022/04/15 10:49:23;;;;;;;3.87;3.57;;;40.80;34.20;;;;;;5052521;28;20508;-74
2022/04/15 10:52:16;;;;;;;5.53;3.23;;;40.90;33.30;;;;;;5052619;28;20171;-74
2022/04/15 10:54:45;;;;;;;3.90;3.20;;;41.60;33.00;;;;;;5051970;28;20464;-74
2022/04/15 10:57:16;;;;;;;3.30;3.00;;;41.30;32.30;;;;;;5052598;28;20806;-74
2022/04/15 11:02:51;;;;;;;2.13;2.03;;;40.40;33.10;;;;;;5052614;28;20429;-74
2022/04/15 11:05:54;;;;;;;3.00;2.80;;;41.10;32.20;;;;;;5052446;28;20416;-74
2022/04/15 11:08:21;;;;;;;2.17;1.97;;;40.30;32.50;;;;;;5052104;28;20408;-74
2022/04/15 11:10:55;;;;;;;3.93;2.80;;;40.20;32.90;;;;;;5052287;28;20483;-74
2022/04/15 11:13:29;;;;;;;2.37;2.20;;;40.70;32.70;;;;;;5052101;28;20433;-74
2022/04/15 11:16:04;;;;;;;2.70;2.50;;;41.60;32.60;;;;;;5052165;28;20444;-74
2022/04/15 11:18:52;;;;;;;2.73;2.53;;;41.90;31.40;;;;;;5051758;28;20441;-74
2022/04/15 11:21:19;;;;;;;1.77;1.67;;;41.10;31.60;;;;;;5050793;28;20520;-74
2022/04/15 11:23:50;;;;;;;2.60;2.40;;;41.50;31.90;;;;;;5051991;28;20397;-74
2022/04/15 11:26:16;;;;;;;2.67;2.47;;;42.20;31.80;;;;;;5051987;28;20502;-75
2022/04/15 11:28:47;;;;;;;3.20;3.00;;;42.80;31.30;;;;;;5051877;28;20401;-74
2022/04/15 11:31:35;;;;;;;3.10;2.77;;;41.80;30.50;;;;;;5052028;28;20523;-75
2022/04/15 11:34:08;;;;;;;3.00;2.70;;;40.60;31.00;;;;;;5052164;28;20902;-75
2022/04/15 11:36:36;;;;;;;3.23;2.90;;;39.90;31.70;;;;;;5051579;28;20786;-75
2022/04/15 11:39:04;;;;;;;3.27;3.00;;;39.90;32.50;;;;;;5051669;28;20488;-74
2022/04/15 11:41:30;;;;;;;4.30;3.37;;;40.00;31.80;;;;;;5051769;28;20452;-75
2022/04/15 11:44:04;;;;;;;3.43;3.07;;;39.70;31.70;;;;;;5051898;28;20429;-75
2022/04/15 11:46:36;;;;;;;2.63;2.30;;;39.90;32.00;;;;;;5051773;28;20193;-75
2022/04/15 11:49:16;;;;;;;4.93;2.57;;;40.90;32.20;;;;;;5051695;28;20433;-75
2022/04/15 11:51:44;;;;;;;4.10;3.07;;;40.90;31.00;;;;;;5050256;28;20513;-75
2022/04/15 11:54:10;;;;;;;3.37;3.10;;;40.70;31.20;;;;;;5050548;28;20417;-75
2022/04/15 11:56:36;;;;;;;3.00;2.50;;;39.60;31.20;;;;;;5050353;28;20491;-75
2022/04/15 11:59:04;;;;;;;2.30;2.20;;;40.00;32.20;;;;;;5050193;28;20484;-75
2022/04/15 12:01:33;;;;;;;3.10;2.80;;;41.10;31.40;;;;;;5050367;28;20471;-75
2022/04/15 12:04:00;;;;;;;4.60;4.20;;;41.00;31.00;;;;;;5051556;28;20410;-75
2022/04/15 12:06:31;;;;;;;3.60;3.40;;;41.20;30.80;;;;;;5051728;28;20440;-75
2022/04/15 12:08:58;;;;;;;4.77;3.73;;;40.70;31.40;;;;;;5049392;28;20414;-75
2022/04/15 12:11:25;;;;;;;3.17;2.87;;;41.70;31.50;;;;;;5050336;28;20500;-75
2022/04/15 12:13:57;;;;;;;8.37;6.63;;;42.60;30.80;;;;;;5050660;28;20946;-75
2022/04/15 12:16:23;;;;;;;4.43;4.03;;;41.60;30.50;;;;;;5050322;28;20460;-75
2022/04/15 12:18:50;;;;;;;3.30;3.00;;;40.60;31.00;;;;;;5049788;28;20417;-75
2022/04/15 12:21:17;;;;;;;4.27;3.87;;;41.10;31.20;;;;;;5050367;28;20914;-75
2022/04/15 12:24:01;;;;;;;4.90;3.97;;;40.70;30.40;;;;;;5050320;28;20783;-75
2022/04/15 12:26:27;;;;;;;3.80;3.50;;;40.10;31.30;;;;;;5049866;28;20437;-75
2022/04/15 12:31:47;;;;;;;6.87;4.77;;;42.40;31.00;;;;;;5051722;28;20174;-75
2022/04/15 12:34:16;;;;;;;8.07;6.23;;;43.20;30.40;;;;;;5051434;28;20405;-75
2022/04/15 12:36:48;;;;;;;5.47;5.00;;;44.30;30.10;;;;;;5051630;28;20195;-76
2022/04/15 12:39:14;;;;;;;5.30;4.90;;;45.50;29.50;;;;;;5051279;28;20467;-75
2022/04/15 12:41:48;;;;;;;5.63;5.07;;;46.30;28.60;;;;;;5055110;28;20409;-75
2022/04/15 12:44:27;;;;;;;5.37;4.40;;;46.90;28.60;;;;;;5055148;28;20532;-75
2022/04/15 12:47:02;;;;;;;5.10;4.70;;;47.10;28.10;;;;;;5053514;28;20441;-76
2022/04/15 12:49:34;;;;;;;5.50;4.97;;;47.10;28.20;;;;;;5055114;28;20427;-75
2022/04/15 12:52:09;;;;;;;6.40;5.50;;;47.00;27.80;;;;;;5054993;28;20999;-76
2022/04/15 12:54:54;;;;;;;7.10;5.43;;;46.60;27.90;;;;;;5054691;28;20413;-76
2022/04/15 12:57:19;;;;;;;5.33;4.90;;;46.50;28.10;;;;;;5053250;28;20416;-76
2022/04/15 12:59:47;;;;;;;7.70;5.10;;;46.70;28.20;;;;;;5054649;28;20467;-76
2022/04/15 13:02:13;;;;;;;5.47;4.97;;;47.00;27.90;;;;;;5053265;28;20237;-75